createdAt,value
2018-03-14T00:04:46.057Z,76.60
2018-03-14T00:09:49.492Z,75.90
2018-03-14T00:14:52.168Z,75.90
2018-03-14T00:19:54.814Z,77.10
2018-03-14T00:24:57.536Z,77.10
2018-03-14T00:30:00.305Z,76.20
2018-03-14T00:35:02.937Z,76.10
2018-03-14T00:40:05.579Z,75.80
2018-03-14T00:45:08.974Z,76.10
2018-03-14T00:50:11.716Z,76.00
2018-03-14T00:55:14.409Z,75.50
2018-03-14T01:00:17.844Z,75.70
2018-03-14T01:05:20.670Z,75.60
2018-03-14T01:10:23.363Z,76.80
2018-03-14T01:15:26.103Z,76.20
2018-03-14T01:20:28.841Z,75.70
2018-03-14T01:25:31.492Z,76.50
2018-03-14T01:30:34.153Z,75.70
2018-03-14T01:35:36.830Z,76.10
2018-03-14T01:40:39.551Z,76.20
2018-03-14T01:45:42.360Z,75.50
2018-03-14T01:50:45.040Z,75.40
2018-03-14T01:55:47.760Z,75.00
2018-03-14T02:00:50.583Z,75.00
2018-03-14T02:05:53.364Z,74.90
2018-03-14T02:10:56.053Z,74.20
2018-03-14T02:15:58.872Z,75.00
2018-03-14T02:21:01.679Z,75.70
2018-03-14T02:26:04.366Z,75.20
2018-03-14T02:31:07.080Z,75.10
2018-03-14T02:36:09.838Z,74.20
2018-03-14T02:41:12.679Z,74.60
2018-03-14T02:46:15.370Z,73.90
2018-03-14T02:51:18.743Z,74.00
2018-03-14T02:56:21.441Z,74.00
2018-03-14T03:01:24.195Z,73.40
2018-03-14T03:06:26.874Z,73.00
2018-03-14T03:11:29.608Z,72.70
2018-03-14T03:16:32.391Z,73.30
2018-03-14T03:21:35.858Z,71.90
2018-03-14T03:26:38.639Z,71.80
2018-03-14T03:31:41.347Z,71.40
2018-03-14T03:36:44.126Z,71.80
2018-03-14T03:41:46.825Z,72.90
2018-03-14T03:46:49.639Z,72.70
2018-03-14T03:51:52.330Z,73.00
2018-03-14T03:56:54.985Z,72.50
2018-03-14T04:01:57.565Z,72.20
2018-03-14T04:07:00.361Z,71.50
2018-03-14T04:12:03.133Z,71.30
2018-03-14T04:17:05.796Z,71.40
2018-03-14T04:22:08.738Z,71.00
2018-03-14T04:27:11.521Z,71.20
2018-03-14T04:32:14.238Z,71.20
2018-03-14T04:37:17.860Z,72.60
2018-03-14T04:42:20.576Z,72.60
2018-03-14T04:47:23.366Z,73.00
2018-03-14T04:52:26.091Z,73.70
2018-03-14T04:57:28.800Z,72.80
2018-03-14T05:02:31.499Z,73.10
2018-03-14T05:07:34.189Z,72.40
2018-03-14T05:12:36.975Z,71.80
2018-03-14T05:17:39.658Z,71.50
2018-03-14T05:22:44.078Z,71.40
2018-03-14T05:27:46.852Z,71.40
2018-03-14T05:32:49.561Z,70.80
2018-03-14T05:37:52.369Z,70.60
2018-03-14T05:42:55.427Z,71.00
2018-03-14T05:47:58.351Z,71.90
2018-03-14T05:53:01.235Z,71.40
2018-03-14T05:58:04.004Z,70.70
2018-03-14T06:03:06.851Z,71.10
2018-03-14T06:08:09.648Z,71.60
2018-03-14T06:13:13.115Z,71.90
2018-03-14T06:18:15.896Z,71.90
2018-03-14T06:23:18.575Z,72.70
2018-03-14T06:28:21.242Z,73.40
2018-03-14T06:33:23.919Z,73.00
2018-03-14T06:38:26.675Z,73.80
2018-03-14T06:43:29.485Z,72.90
2018-03-14T06:48:32.285Z,72.40
2018-03-14T06:53:34.867Z,72.10
2018-03-14T06:58:52.750Z,71.50
2018-03-14T07:04:07.690Z,71.50
2018-03-14T07:09:10.277Z,71.00
2018-03-14T07:14:15.528Z,70.20
2018-03-14T07:19:18.419Z,70.50
2018-03-14T07:24:21.005Z,71.10
2018-03-14T07:29:24.244Z,70.70
2018-03-14T07:34:29.931Z,69.00
2018-03-14T07:39:34.346Z,67.80
2018-03-14T07:44:36.972Z,67.70
2018-03-14T07:49:40.383Z,67.60
2018-03-14T07:54:43.409Z,69.40
2018-03-14T07:59:46.020Z,69.30
2018-03-14T08:04:49.449Z,64.50
2018-03-14T08:09:52.037Z,64.40
2018-03-14T08:14:56.321Z,62.50
2018-03-14T08:19:59.614Z,62.40
2018-03-14T08:25:04.916Z,61.80
2018-03-14T08:30:08.158Z,61.00
2018-03-14T08:35:12.104Z,59.60
2018-03-14T08:40:16.625Z,59.60
2018-03-14T08:45:19.209Z,59.60
2018-03-14T08:50:21.873Z,60.00
2018-03-14T08:55:24.552Z,60.20
2018-03-14T09:00:27.729Z,61.30
2018-03-14T09:05:31.186Z,58.60
2018-03-14T09:10:34.861Z,58.60
2018-03-14T09:15:38.100Z,53.30
2018-03-14T09:20:42.511Z,44.80
2018-03-14T09:25:45.122Z,41.70
2018-03-14T09:30:48.840Z,33.60
2018-03-14T09:35:51.688Z,33.60
2018-03-14T09:40:56.964Z,30.20
2018-03-14T09:45:59.917Z,30.70
2018-03-14T09:51:03.066Z,27.30
2018-03-14T09:56:06.221Z,28.50
2018-03-14T10:01:08.797Z,27.40
2018-03-14T10:06:12.133Z,28.20
2018-03-14T10:11:15.554Z,28.90
2018-03-14T10:16:18.130Z,30.70
2018-03-14T10:21:20.787Z,33.20
2018-03-14T10:26:24.173Z,34.40
2018-03-14T10:31:26.752Z,34.30
2018-03-14T10:36:29.324Z,36.10
2018-03-14T10:41:32.494Z,36.40
2018-03-14T10:46:35.076Z,38.50
2018-03-14T10:51:54.177Z,36.90
2018-03-14T10:56:56.774Z,39.90
2018-03-14T11:02:04.962Z,40.80
2018-03-14T11:07:07.555Z,39.80
2018-03-14T11:12:10.164Z,37.30
2018-03-14T11:17:12.960Z,37.10
2018-03-14T11:22:15.552Z,39.70
2018-03-14T11:27:18.749Z,39.80
2018-03-14T11:32:21.341Z,37.00
2018-03-14T11:37:24.697Z,39.50
2018-03-14T11:42:27.281Z,39.60
2018-03-14T11:47:29.983Z,37.20
2018-03-14T11:52:32.996Z,38.60
2018-03-14T11:57:35.880Z,37.60
2018-03-14T12:02:40.993Z,36.90
2018-03-14T12:07:44.665Z,36.30
2018-03-14T12:12:48.352Z,36.90
2018-03-14T12:17:51.560Z,37.10
2018-03-14T12:22:54.135Z,35.50
2018-03-14T12:27:56.860Z,35.20
2018-03-14T12:32:59.449Z,35.70
2018-03-14T12:38:02.040Z,35.80
2018-03-14T12:43:05.079Z,33.90
2018-03-14T12:48:08.880Z,32.90
2018-03-14T12:53:14.219Z,32.80
2018-03-14T12:58:17.071Z,30.80
2018-03-14T13:03:20.672Z,29.20
2018-03-14T13:08:24.024Z,28.30
2018-03-14T13:13:28.315Z,28.30
2018-03-14T13:18:33.574Z,27.50
2018-03-14T13:23:36.152Z,27.30
2018-03-14T13:28:53.473Z,25.40
2018-03-14T13:33:56.060Z,23.90
2018-03-14T13:38:58.648Z,26.30
2018-03-14T13:44:01.984Z,23.40
2018-03-14T13:49:06.347Z,23.80
2018-03-14T13:54:09.373Z,22.70
2018-03-14T13:59:12.609Z,23.60
2018-03-14T14:09:25.573Z,26.00
2018-03-14T14:14:29.977Z,26.00
2018-03-14T14:19:32.997Z,25.40
2018-03-14T14:24:35.573Z,26.00
2018-03-14T14:29:45.561Z,25.60
2018-03-14T14:34:48.162Z,24.10
2018-03-14T14:39:50.754Z,26.10
2018-03-14T14:44:53.781Z,27.60
2018-03-14T14:49:56.377Z,28.20
2018-03-14T14:55:00.444Z,27.30
2018-03-14T15:00:03.021Z,27.40
2018-03-14T15:05:05.609Z,26.50
2018-03-14T15:10:08.837Z,26.10
2018-03-14T15:15:11.426Z,25.50
2018-03-14T15:20:14.006Z,25.10
2018-03-14T15:25:16.905Z,26.00
2018-03-14T15:30:19.494Z,26.20
2018-03-14T15:35:22.773Z,26.20
2018-03-14T15:40:26.760Z,27.00
2018-03-14T15:45:32.300Z,27.00
2018-03-14T15:50:34.888Z,25.90
2018-03-14T15:55:39.403Z,25.70
2018-03-14T16:00:42.002Z,26.00
2018-03-14T16:05:44.864Z,24.70
2018-03-14T16:10:48.037Z,25.20
2018-03-14T16:15:51.377Z,24.90
2018-03-14T16:20:54.002Z,24.90
2018-03-14T16:25:57.044Z,24.60
2018-03-14T16:31:00.393Z,25.50
2018-03-14T16:36:02.984Z,25.50
2018-03-14T16:41:05.577Z,26.50
2018-03-14T16:46:08.925Z,26.50
2018-03-14T16:51:12.118Z,26.40
2018-03-14T16:56:14.833Z,26.40
2018-03-14T17:01:17.896Z,27.20
2018-03-14T17:06:20.817Z,27.50
2018-03-14T17:11:24.173Z,27.80
2018-03-14T17:16:26.761Z,27.80
2018-03-14T17:21:29.354Z,28.20
2018-03-14T17:26:32.212Z,28.70
2018-03-14T17:31:34.860Z,29.20
2018-03-14T17:36:38.657Z,31.00
2018-03-14T17:41:42.464Z,32.90
2018-03-14T17:46:47.150Z,32.30
2018-03-14T17:51:50.015Z,32.30
2018-03-14T17:56:53.043Z,33.20
2018-03-14T18:01:59.229Z,34.50
2018-03-14T18:07:02.606Z,34.80
2018-03-14T18:12:05.782Z,34.80
2018-03-14T18:17:11.560Z,34.50
2018-03-14T18:22:15.389Z,34.80
2018-03-14T18:27:19.371Z,35.30
2018-03-14T18:32:27.253Z,36.20
2018-03-14T18:37:31.613Z,37.20
2018-03-14T18:42:34.184Z,37.30
2018-03-14T18:47:37.120Z,38.30
2018-03-14T18:52:39.705Z,38.10
2018-03-14T18:57:42.954Z,37.90
2018-03-14T19:02:46.516Z,38.60
2018-03-14T19:07:51.435Z,38.40
2018-03-14T19:12:54.786Z,39.30
2018-03-14T19:17:57.364Z,39.30
2018-03-14T19:23:00.156Z,40.00
2018-03-14T19:28:03.961Z,40.60
2018-03-14T19:33:09.956Z,40.80
2018-03-14T19:38:13.364Z,41.00
2018-03-14T19:43:15.957Z,41.00
2018-03-14T19:48:18.530Z,41.90
2018-03-14T19:53:21.923Z,42.30
2018-03-14T19:58:27.263Z,42.90
2018-03-14T20:03:29.878Z,44.20
2018-03-14T20:08:32.606Z,42.70
2018-03-14T20:13:35.184Z,43.00
2018-03-14T20:18:38.345Z,43.80
2018-03-14T20:23:42.178Z,44.20
2018-03-14T20:33:57.981Z,44.60
2018-03-14T20:39:00.612Z,44.60
2018-03-14T20:44:03.201Z,45.20
2018-03-14T20:49:07.192Z,45.30
2018-03-14T20:54:10.308Z,45.60
2018-03-14T20:59:13.483Z,45.50
2018-03-14T21:04:16.867Z,46.00
2018-03-14T21:09:19.448Z,46.00
2018-03-14T21:14:22.778Z,46.10
2018-03-14T21:19:26.351Z,46.10
2018-03-14T21:24:28.958Z,46.80
2018-03-14T21:29:31.845Z,47.40
2018-03-14T21:34:35.189Z,48.50
2018-03-14T21:39:37.982Z,49.30
2018-03-14T21:44:41.709Z,48.80
2018-03-14T21:49:44.440Z,49.40
2018-03-14T21:54:47.203Z,49.80
2018-03-14T21:59:49.919Z,50.30
2018-03-14T22:04:53.964Z,50.20
2018-03-14T22:09:58.081Z,50.80
2018-03-14T22:15:01.588Z,51.40
2018-03-14T22:20:05.491Z,52.60
2018-03-14T22:25:08.242Z,52.30
2018-03-14T22:30:11.419Z,52.70
2018-03-14T22:35:14.230Z,52.70
2018-03-14T22:40:16.904Z,53.30
2018-03-14T22:45:20.922Z,53.40
2018-03-14T22:50:25.600Z,54.10
2018-03-14T22:55:28.797Z,54.00
2018-03-14T23:00:31.913Z,53.70
2018-03-14T23:05:35.281Z,54.10
2018-03-14T23:10:37.878Z,54.10
2018-03-14T23:15:43.052Z,55.30
2018-03-14T23:20:46.189Z,55.80
2018-03-14T23:25:49.351Z,57.30
2018-03-14T23:30:51.935Z,59.00
2018-03-14T23:35:54.514Z,57.80
2018-03-14T23:41:15.081Z,57.80
2018-03-14T23:46:17.669Z,57.80
2018-03-14T23:51:20.877Z,58.20
2018-03-14T23:56:23.473Z,57.70
